Time;durP1;ratioP1;P1;durP2;ratioP2;P2;SDS_P1;SDS_P2;PMS_P1;PMS_P2;Temp;Humidity;BMP_temperature;BMP_pressure;BME280_temperature;BME280_humidity;BME280_pressure;Samples;Min_cycle;Max_cycle;Signal;HPM_P1;HPM_P2
2022/04/01 00:00:15;;;;;;;12.85;11.65;;;22.00;70.00;;;;;;6109634;28;94034;-67
2022/04/01 00:03:18;;;;;;;12.50;11.30;;;22.00;70.00;;;;;;6107840;28;93521;-67
2022/04/01 00:06:21;;;;;;;13.65;12.23;;;22.00;70.00;;;;;;6107700;28;94179;-67
2022/04/01 00:09:23;;;;;;;12.13;10.90;;;22.00;70.00;;;;;;6109056;28;94144;-67
2022/04/01 00:12:25;;;;;;;12.35;11.13;;;22.00;70.00;;;;;;6101690;28;95194;-67
2022/04/01 00:15:27;;;;;;;12.52;11.32;;;22.00;70.00;;;;;;6109219;28;94325;-67
2022/04/01 00:18:29;;;;;;;12.32;11.05;;;22.00;70.00;;;;;;6104796;28;94415;-67
2022/04/01 00:21:33;;;;;;;13.02;11.63;;;22.00;69.80;;;;;;6095024;28;94446;-66
2022/04/01 00:24:35;;;;;;;12.50;11.30;;;22.00;69.80;;;;;;6108740;28;94160;-67
2022/04/01 00:27:37;;;;;;;12.20;11.00;;;22.00;69.80;;;;;;6103877;28;94157;-67
2022/04/01 00:30:39;;;;;;;12.07;10.90;;;22.00;69.60;;;;;;6098129;28;94086;-67
2022/04/01 00:33:41;;;;;;;12.73;11.43;;;22.00;69.60;;;;;;6109733;28;93354;-67
2022/04/01 00:36:46;;;;;;;12.23;11.02;;;22.00;69.50;;;;;;6107206;28;93947;-66
2022/04/01 00:39:48;;;;;;;11.15;10.05;;;22.00;69.50;;;;;;6108463;28;95427;-67
2022/04/01 00:42:50;;;;;;;11.57;10.48;;;22.00;69.60;;;;;;6104835;28;95300;-67
2022/04/01 00:45:52;;;;;;;11.73;10.52;;;21.90;69.60;;;;;;6107288;28;94032;-67
2022/04/01 00:48:54;;;;;;;11.75;10.57;;;21.90;69.60;;;;;;6105426;28;93126;-67
2022/04/01 00:51:59;;;;;;;11.80;10.60;;;21.90;69.60;;;;;;6105982;28;94172;-67
2022/04/01 00:55:02;;;;;;;11.13;10.00;;;21.90;69.60;;;;;;6108219;28;94221;-67
2022/04/01 00:58:05;;;;;;;11.75;10.57;;;21.90;69.60;;;;;;6106669;28;94160;-67
2022/04/01 01:01:07;;;;;;;11.13;9.95;;;21.90;69.60;;;;;;6107418;28;93366;-67
2022/04/01 01:04:10;;;;;;;9.77;8.85;;;21.90;69.60;;;;;;6101679;28;93367;-67
2022/04/01 01:07:14;;;;;;;9.80;8.85;;;21.90;69.60;;;;;;6095934;28;94221;-67
2022/04/01 01:10:18;;;;;;;10.05;8.88;;;21.90;69.50;;;;;;6095701;28;94110;-67
2022/04/01 01:13:20;;;;;;;9.55;8.65;;;21.80;69.40;;;;;;6103925;28;95078;-68
2022/04/01 01:16:22;;;;;;;9.88;8.88;;;21.90;69.60;;;;;;6105423;28;93311;-67
2022/04/01 01:19:24;;;;;;;9.70;8.70;;;21.90;69.50;;;;;;6109119;28;94125;-67
2022/04/01 01:22:28;;;;;;;9.82;8.82;;;21.90;69.50;;;;;;6108272;28;94326;-67
2022/04/01 01:25:36;;;;;;;8.95;8.05;;;21.80;69.40;;;;;;6105393;28;94121;-67
2022/04/01 01:28:38;;;;;;;9.90;8.90;;;21.90;69.40;;;;;;6106704;28;93026;-67
2022/04/01 01:31:40;;;;;;;9.70;8.27;;;21.80;69.30;;;;;;6106526;28;94516;-67
2022/04/01 01:34:42;;;;;;;9.18;8.27;;;21.90;69.40;;;;;;6109035;28;93582;-67
2022/04/01 01:37:44;;;;;;;8.98;8.13;;;21.90;69.40;;;;;;6105588;28;94441;-66
2022/04/01 01:40:48;;;;;;;9.98;9.00;;;21.90;69.40;;;;;;6100396;28;95222;-67
2022/04/01 01:43:50;;;;;;;9.63;8.73;;;21.90;69.40;;;;;;6097401;28;95049;-67
2022/04/01 01:46:54;;;;;;;9.70;8.70;;;21.90;69.30;;;;;;6105660;28;93365;-67
2022/04/01 01:56:36;;;;;;;10.05;9.05;;;21.90;69.30;;;;;;6105154;28;92393;-67
2022/04/01 01:59:38;;;;;;;10.25;9.25;;;21.80;69.30;;;;;;6108812;28;94124;-67
2022/04/01 02:02:40;;;;;;;10.93;9.82;;;21.80;69.30;;;;;;6106788;28;94256;-67
2022/04/01 02:05:43;;;;;;;10.25;9.25;;;21.80;69.30;;;;;;6106437;28;93369;-68
2022/04/01 02:08:46;;;;;;;10.15;9.15;;;21.80;69.30;;;;;;6106806;28;94507;-67
2022/04/01 02:11:50;;;;;;;10.80;9.73;;;21.80;69.30;;;;;;6102566;28;94122;-67
2022/04/01 02:14:52;;;;;;;10.45;9.45;;;21.80;69.30;;;;;;6100335;28;94917;-67
2022/04/01 02:17:55;;;;;;;11.23;10.13;;;21.80;69.30;;;;;;6092429;28;94267;-67
2022/04/01 02:20:57;;;;;;;11.13;9.98;;;21.80;69.30;;;;;;6104348;28;94482;-67
2022/04/01 02:23:58;;;;;;;11.05;9.95;;;21.70;69.30;;;;;;6106743;28;94116;-67
2022/04/01 02:27:02;;;;;;;10.48;9.48;;;21.80;69.30;;;;;;6105145;28;94360;-67
2022/04/01 02:30:10;;;;;;;11.07;9.98;;;21.80;69.30;;;;;;6105408;28;94191;-67
2022/04/01 02:33:12;;;;;;;10.98;9.88;;;21.70;69.10;;;;;;6106261;28;94107;-67
2022/04/01 02:36:14;;;;;;;11.00;9.90;;;21.80;70.10;;;;;;6106728;28;93425;-67
2022/04/01 02:39:16;;;;;;;10.68;9.57;;;21.80;69.30;;;;;;6105032;28;94051;-67
2022/04/01 02:42:19;;;;;;;10.88;9.77;;;21.80;69.20;;;;;;6098623;28;94132;-67
2022/04/01 02:45:21;;;;;;;11.77;10.63;;;21.80;69.10;;;;;;6106771;28;95096;-67
2022/04/01 02:48:23;;;;;;;11.15;10.05;;;21.80;69.20;;;;;;6105521;28;94530;-67
2022/04/01 02:51:26;;;;;;;11.20;10.10;;;21.80;69.00;;;;;;6100112;28;94079;-67
2022/04/01 02:54:29;;;;;;;11.50;10.40;;;21.80;69.00;;;;;;6104097;28;94120;-67
2022/04/01 02:57:33;;;;;;;11.32;10.18;;;21.70;68.90;;;;;;6100632;28;94349;-67
2022/04/01 03:00:35;;;;;;;11.10;9.93;;;21.80;69.00;;;;;;6094614;28;93118;-67
2022/04/01 03:03:37;;;;;;;10.90;9.82;;;21.80;69.00;;;;;;6103645;28;94474;-67
2022/04/01 03:06:40;;;;;;;10.93;9.93;;;21.80;69.00;;;;;;6105119;28;93322;-67
2022/04/01 03:09:42;;;;;;;11.70;10.52;;;21.80;68.90;;;;;;6106962;28;94316;-67
2022/04/01 03:12:45;;;;;;;11.38;10.27;;;21.70;68.90;;;;;;6101353;28;94195;-67
2022/04/01 03:15:47;;;;;;;10.93;9.90;;;21.80;69.10;;;;;;6104541;28;95268;-67
2022/04/01 03:18:50;;;;;;;11.20;10.10;;;21.70;68.90;;;;;;6103295;28;94040;-67
2022/04/01 03:21:52;;;;;;;10.93;9.82;;;21.70;68.90;;;;;;6105599;28;94098;-67
2022/04/01 03:24:54;;;;;;;11.20;10.20;;;21.70;69.00;;;;;;6105047;28;94075;-67
2022/04/01 03:27:57;;;;;;;11.35;10.25;;;21.70;69.00;;;;;;6096738;28;94146;-67
2022/04/01 03:31:00;;;;;;;10.93;9.82;;;21.70;69.10;;;;;;6106272;28;94286;-67
2022/04/01 03:34:02;;;;;;;10.85;9.85;;;21.70;69.10;;;;;;6105332;28;94154;-67
2022/04/01 03:37:05;;;;;;;10.35;9.38;;;21.70;69.10;;;;;;6106750;28;93338;-66
2022/04/01 03:40:08;;;;;;;10.85;9.85;;;21.70;69.10;;;;;;6105233;28;94085;-67
2022/04/01 03:43:11;;;;;;;11.32;10.13;;;21.70;69.20;;;;;;6104718;28;94021;-66
2022/04/01 03:46:17;;;;;;;10.50;9.50;;;21.60;69.10;;;;;;6104547;28;95183;-67
2022/04/01 03:49:23;;;;;;;10.40;9.40;;;21.70;69.10;;;;;;6103741;28;94121;-67
2022/04/01 03:52:26;;;;;;;10.45;9.45;;;21.60;69.10;;;;;;6106973;28;94186;-67
2022/04/01 03:55:31;;;;;;;10.02;9.02;;;21.60;69.00;;;;;;6104697;28;94077;-67
2022/04/01 03:58:36;;;;;;;10.68;9.65;;;21.60;69.10;;;;;;6103159;28;94049;-67
2022/04/01 04:01:39;;;;;;;10.20;9.20;;;21.60;69.00;;;;;;6100796;28;94109;-67
2022/04/01 04:04:41;;;;;;;10.30;9.30;;;21.70;69.10;;;;;;6098640;28;92052;-67
2022/04/01 04:07:43;;;;;;;10.35;9.35;;;21.70;69.10;;;;;;6106858;28;93716;-67
2022/04/01 04:10:47;;;;;;;10.20;9.20;;;21.70;69.10;;;;;;6103462;28;94024;-67
2022/04/01 04:13:52;;;;;;;10.18;9.18;;;21.70;69.10;;;;;;6096361;28;94072;-67
2022/04/01 04:16:57;;;;;;;9.90;9.00;;;21.70;69.10;;;;;;6098745;28;94141;-66
2022/04/01 04:20:08;;;;;;;9.57;8.68;;;21.70;69.00;;;;;;6104829;28;94084;-67
2022/04/01 04:23:24;;;;;;;9.43;8.52;;;21.70;69.00;;;;;;6105159;28;94180;-67
2022/04/01 04:26:31;;;;;;;9.65;8.75;;;21.70;68.90;;;;;;6106143;28;93032;-67
2022/04/01 04:29:37;;;;;;;9.45;8.55;;;21.70;68.90;;;;;;6105480;28;93016;-66
2022/04/01 04:32:44;;;;;;;9.40;8.50;;;21.70;68.90;;;;;;6105057;28;93855;-67
2022/04/01 04:35:49;;;;;;;9.32;8.43;;;21.70;69.00;;;;;;6105788;28;94112;-66
2022/04/01 04:38:55;;;;;;;9.02;8.23;;;21.70;68.90;;;;;;6092514;28;93353;-66
2022/04/01 04:41:57;;;;;;;9.00;8.10;;;21.70;68.90;;;;;;6091891;28;94113;-66
2022/04/01 04:48:22;;;;;;;8.57;7.78;;;21.60;68.90;;;;;;6095862;28;93267;-66
2022/04/01 04:51:25;;;;;;;9.35;8.45;;;21.60;68.90;;;;;;6096259;28;94103;-67
2022/04/01 04:54:27;;;;;;;8.35;7.55;;;21.60;68.90;;;;;;6109557;28;94394;-66
2022/04/01 04:57:30;;;;;;;9.07;8.18;;;21.60;68.80;;;;;;6106836;28;94158;-67
2022/04/01 05:00:33;;;;;;;8.88;7.97;;;21.60;68.90;;;;;;6092859;28;94049;-67
2022/04/01 05:03:55;;;;;;;8.23;7.43;;;21.60;68.90;;;;;;6099280;28;94489;-65
2022/04/01 05:07:11;;;;;;;8.15;7.35;;;21.70;69.30;;;;;;6100595;28;94103;-67
2022/04/01 05:10:18;;;;;;;8.05;6.97;;;21.70;70.30;;;;;;6109117;28;93575;-67
2022/04/01 05:13:25;;;;;;;7.85;7.13;;;21.70;70.70;;;;;;6107966;28;94119;-67
2022/04/01 05:16:37;;;;;;;8.05;7.25;;;21.70;70.60;;;;;;6104232;28;93210;-67
2022/04/01 05:19:42;;;;;;;7.75;7.03;;;21.70;70.80;;;;;;6104410;28;95109;-68
2022/04/01 05:22:53;;;;;;;7.97;7.22;;;21.70;70.40;;;;;;6095643;28;94661;-68
2022/04/01 05:25:58;;;;;;;7.68;6.97;;;21.70;70.30;;;;;;6096140;28;93208;-68
2022/04/01 05:29:03;;;;;;;7.45;6.65;;;21.70;70.50;;;;;;6098800;28;94126;-68
2022/04/01 05:32:10;;;;;;;8.63;7.45;;;21.70;70.50;;;;;;6101079;28;94129;-68
2022/04/01 05:35:13;;;;;;;9.45;7.03;;;21.70;70.40;;;;;;6109324;28;94197;-67
2022/04/01 05:38:15;;;;;;;9.10;7.07;;;21.70;70.30;;;;;;6105552;28;94172;-68
2022/04/01 05:41:19;;;;;;;10.82;7.30;;;21.70;70.30;;;;;;6106632;28;93654;-67
2022/04/01 05:44:22;;;;;;;10.02;7.20;;;21.70;70.60;;;;;;6108656;28;94409;-67
2022/04/01 05:47:27;;;;;;;10.32;7.47;;;21.70;70.70;;;;;;6096341;28;94052;-67
2022/04/01 05:50:30;;;;;;;9.80;6.50;;;21.70;70.80;;;;;;6099981;28;95182;-67
2022/04/01 05:53:34;;;;;;;9.50;6.70;;;21.70;70.60;;;;;;6095845;28;94066;-67
2022/04/01 05:56:38;;;;;;;10.55;6.82;;;21.70;70.60;;;;;;6101089;28;92989;-67
2022/04/01 05:59:42;;;;;;;10.63;6.80;;;21.70;70.50;;;;;;6094515;28;94104;-67
2022/04/01 06:03:14;;;;;;;18.35;8.27;;;21.60;70.50;;;;;;6101017;28;94131;-67
2022/04/01 06:06:26;;;;;;;13.18;7.18;;;21.70;70.80;;;;;;6052502;28;94281;-68
2022/04/01 06:09:36;;;;;;;10.77;6.88;;;21.60;71.00;;;;;;6106534;28;94443;-67
2022/04/01 06:12:52;;;;;;;9.82;6.72;;;21.60;71.00;;;;;;6093662;28;94216;-67
2022/04/01 06:19:32;;;;;;;9.27;6.05;;;21.60;71.00;;;;;;6094128;28;92302;-67
2022/04/01 06:22:43;;;;;;;7.68;6.00;;;21.60;70.70;;;;;;6091453;28;95044;-67
2022/04/01 06:25:52;;;;;;;7.30;5.78;;;21.60;70.60;;;;;;6106540;28;94226;-67
2022/04/01 06:29:09;;;;;;;8.93;6.10;;;21.60;70.50;;;;;;6094526;28;94142;-67
2022/04/01 06:32:17;;;;;;;6.60;5.90;;;21.70;70.50;;;;;;6081620;28;94549;-67
2022/04/01 06:35:27;;;;;;;6.85;5.60;;;21.60;70.50;;;;;;6106345;28;94117;-67
2022/04/01 06:38:39;;;;;;;8.07;5.45;;;21.70;70.50;;;;;;6088848;28;94184;-68
2022/04/01 06:41:45;;;;;;;6.28;5.13;;;21.70;70.40;;;;;;6094969;28;94124;-67
2022/04/01 06:44:49;;;;;;;7.40;5.47;;;21.60;70.30;;;;;;6095901;28;93618;-67
2022/04/01 06:47:52;;;;;;;6.47;5.20;;;21.60;70.30;;;;;;6105606;28;93057;-68
2022/04/01 06:50:57;;;;;;;6.38;5.45;;;21.60;70.30;;;;;;6086299;28;94301;-67
2022/04/01 06:53:59;;;;;;;6.45;5.15;;;21.60;70.20;;;;;;6095882;28;95358;-67
2022/04/01 06:57:01;;;;;;;6.45;5.10;;;21.60;71.10;;;;;;6095474;28;94097;-67
2022/04/01 07:00:05;;;;;;;5.57;4.93;;;21.60;70.20;;;;;;6105234;28;94182;-67
2022/04/01 07:03:08;;;;;;;7.40;5.38;;;21.60;70.20;;;;;;6088915;28;94042;-67
2022/04/01 07:06:11;;;;;;;5.60;5.00;;;21.60;70.20;;;;;;6096111;28;94010;-68
2022/04/01 07:09:13;;;;;;;5.70;4.38;;;21.60;70.10;;;;;;6095039;28;94196;-67
2022/04/01 07:12:15;;;;;;;5.93;4.75;;;21.60;70.10;;;;;;6096918;28;94168;-67
2022/04/01 07:15:17;;;;;;;5.53;4.45;;;21.60;70.10;;;;;;6088971;28;92258;-67
2022/04/01 07:18:21;;;;;;;5.75;4.60;;;21.60;70.10;;;;;;6084094;28;94096;-67
2022/04/01 07:21:25;;;;;;;4.53;4.13;;;21.60;70.10;;;;;;6104597;28;94447;-67
2022/04/01 07:24:27;;;;;;;5.07;4.18;;;21.60;70.10;;;;;;6095305;28;95087;-67
2022/04/01 07:27:29;;;;;;;5.18;4.35;;;21.60;70.00;;;;;;6103430;28;94120;-67
2022/04/01 07:30:31;;;;;;;5.05;4.32;;;21.60;70.00;;;;;;6104998;28;94424;-67
2022/04/01 07:33:34;;;;;;;5.82;3.88;;;21.60;70.00;;;;;;6087550;28;94089;-67
2022/04/01 07:36:37;;;;;;;5.25;4.13;;;21.60;70.00;;;;;;6102195;28;94088;-67
2022/04/01 07:39:40;;;;;;;4.30;3.90;;;21.60;69.90;;;;;;6100647;28;94235;-67
2022/04/01 07:42:42;;;;;;;5.03;4.20;;;21.60;69.90;;;;;;6106259;28;94063;-67
2022/04/01 07:45:44;;;;;;;4.65;3.92;;;21.60;69.90;;;;;;6105358;28;93391;-67
2022/04/01 07:48:46;;;;;;;4.85;3.63;;;21.60;69.80;;;;;;6105169;28;94114;-67
2022/04/01 07:51:49;;;;;;;4.63;3.83;;;21.70;69.90;;;;;;6099147;28;94137;-68
2022/04/01 07:54:52;;;;;;;4.47;4.05;;;21.60;69.80;;;;;;6097751;28;95202;-67
2022/04/01 07:57:56;;;;;;;4.70;3.67;;;21.60;70.50;;;;;;6105021;28;94129;-67
2022/04/01 08:00:59;;;;;;;4.88;3.90;;;21.60;71.50;;;;;;6097807;28;94072;-67
2022/04/01 08:04:01;;;;;;;5.82;3.85;;;21.60;71.50;;;;;;6102798;28;94190;-67
2022/04/01 08:07:04;;;;;;;6.60;3.78;;;21.70;71.40;;;;;;6104481;28;94100;-67
2022/04/01 08:10:08;;;;;;;7.40;3.70;;;21.70;71.00;;;;;;6105230;28;94101;-67
2022/04/01 08:13:11;;;;;;;5.53;3.70;;;21.70;71.10;;;;;;6092024;28;94018;-67
2022/04/01 08:16:13;;;;;;;3.72;3.30;;;21.70;70.70;;;;;;6093656;28;93711;-67
2022/04/01 08:19:16;;;;;;;4.10;3.58;;;21.70;70.80;;;;;;6099382;28;94258;-67
2022/04/01 08:22:19;;;;;;;4.28;3.40;;;21.70;70.60;;;;;;6097708;28;94217;-67
2022/04/01 08:25:21;;;;;;;4.07;3.60;;;21.60;70.50;;;;;;6093577;28;95037;-67
2022/04/01 08:28:23;;;;;;;5.35;3.67;;;21.60;70.50;;;;;;6090568;28;94435;-66
2022/04/01 08:31:26;;;;;;;6.32;3.45;;;21.60;70.50;;;;;;6084654;28;94093;-66
2022/04/01 08:34:28;;;;;;;5.85;3.47;;;21.60;71.00;;;;;;6108994;28;94342;-67
2022/04/01 08:37:31;;;;;;;5.18;3.35;;;21.70;71.30;;;;;;6102011;28;93993;-67
2022/04/01 08:40:33;;;;;;;5.15;3.60;;;21.60;70.90;;;;;;6104639;28;92965;-66
2022/04/01 08:43:37;;;;;;;4.20;3.28;;;21.60;70.90;;;;;;6108938;28;93107;-67
2022/04/01 08:46:39;;;;;;;3.47;3.03;;;21.70;70.80;;;;;;6109776;28;93851;-67
2022/04/01 08:49:41;;;;;;;4.10;3.20;;;21.60;70.80;;;;;;6094627;28;94177;-67
2022/04/01 08:52:44;;;;;;;3.90;3.47;;;21.70;70.70;;;;;;6100151;28;94370;-67
2022/04/01 08:55:48;;;;;;;3.72;3.20;;;21.70;70.70;;;;;;6098230;28;95103;-67
2022/04/01 08:58:50;;;;;;;3.63;3.13;;;21.60;70.50;;;;;;6095613;28;94435;-69
2022/04/01 09:01:52;;;;;;;3.50;3.03;;;21.70;70.70;;;;;;6095504;28;94074;-67
2022/04/01 09:05:22;;;;;;;4.13;3.10;;;21.70;70.70;;;;;;6107175;28;94123;-67
2022/04/01 09:08:27;;;;;;;4.45;3.30;;;21.60;70.60;;;;;;6100527;28;94053;-67
2022/04/01 09:11:29;;;;;;;4.18;3.10;;;21.70;70.60;;;;;;6095698;28;94191;-67
2022/04/01 09:14:31;;;;;;;3.65;3.25;;;21.60;70.50;;;;;;6107279;28;94138;-67
2022/04/01 09:17:41;;;;;;;3.40;2.90;;;21.60;70.50;;;;;;6085221;28;93368;-66
2022/04/01 09:20:44;;;;;;;4.85;2.92;;;21.60;70.50;;;;;;6092284;28;94448;-67
2022/04/01 09:23:49;;;;;;;3.22;2.90;;;21.60;70.50;;;;;;6103093;28;94226;-67
2022/04/01 09:26:55;;;;;;;4.35;2.90;;;21.60;70.60;;;;;;6087976;28;95345;-67
2022/04/01 09:29:57;;;;;;;3.72;2.80;;;21.60;70.50;;;;;;6099095;28;94089;-66
2022/04/01 09:33:02;;;;;;;3.40;2.92;;;21.60;70.40;;;;;;6107346;28;94081;-67
2022/04/01 09:36:06;;;;;;;3.00;2.70;;;21.60;70.50;;;;;;6107202;28;94541;-66
2022/04/01 09:39:11;;;;;;;3.55;2.83;;;21.60;70.40;;;;;;6095758;28;94261;-67
2022/04/01 09:42:13;;;;;;;2.85;2.55;;;21.60;70.30;;;;;;6107339;28;94228;-67
2022/04/01 09:45:19;;;;;;;2.72;2.53;;;21.60;70.30;;;;;;6107955;28;93284;-67
2022/04/01 09:48:21;;;;;;;3.38;2.60;;;21.60;70.30;;;;;;6107939;28;93353;-67
2022/04/01 09:51:24;;;;;;;2.83;2.47;;;21.60;70.30;;;;;;6107057;28;94464;-67
2022/04/01 09:54:28;;;;;;;3.67;2.60;;;21.60;70.30;;;;;;6083791;28;94082;-67
2022/04/01 09:57:30;;;;;;;2.55;2.30;;;21.60;70.30;;;;;;6084327;28;95417;-66
2022/04/01 10:00:33;;;;;;;3.28;2.67;;;21.60;70.20;;;;;;6104239;28;94053;-67
2022/04/01 10:03:35;;;;;;;4.10;2.50;;;21.60;70.30;;;;;;6106017;28;94331;-67
2022/04/01 10:06:39;;;;;;;2.60;2.33;;;21.60;70.30;;;;;;6101727;28;94316;-67
2022/04/01 10:09:44;;;;;;;2.80;2.50;;;21.60;70.20;;;;;;6100774;28;96011;-67
2022/04/01 10:12:48;;;;;;;2.90;2.50;;;21.60;70.30;;;;;;6094062;28;94562;-67
2022/04/01 10:15:53;;;;;;;2.55;2.17;;;21.60;70.20;;;;;;6092461;28;94103;-66
2022/04/01 10:18:58;;;;;;;2.90;2.60;;;21.60;70.20;;;;;;6097272;28;93586;-67
2022/04/01 10:22:01;;;;;;;2.78;2.42;;;21.60;70.20;;;;;;6106275;28;94141;-67
2022/04/01 10:25:13;;;;;;;2.85;2.40;;;21.60;70.20;;;;;;6094264;28;94158;-67
2022/04/01 10:28:17;;;;;;;3.05;2.15;;;21.60;70.40;;;;;;6088670;28;95033;-66
2022/04/01 10:31:20;;;;;;;2.97;2.35;;;21.60;70.70;;;;;;6106567;28;97072;-67
2022/04/01 10:34:24;;;;;;;2.80;2.30;;;21.60;70.60;;;;;;6104773;28;94037;-66
2022/04/01 10:37:28;;;;;;;3.92;2.40;;;21.60;70.30;;;;;;6107721;28;94188;-66
2022/04/01 10:40:34;;;;;;;3.10;2.40;;;21.60;70.30;;;;;;6105968;28;94163;-67
2022/04/01 10:43:41;;;;;;;3.40;2.50;;;21.70;70.30;;;;;;6108109;28;92193;-67
2022/04/01 10:46:58;;;;;;;2.88;2.40;;;21.70;70.20;;;;;;6103250;28;94386;-66
2022/04/01 10:53:45;;;;;;;3.20;2.35;;;21.70;70.00;;;;;;6093912;28;93029;-67
2022/04/01 10:57:00;;;;;;;2.47;2.03;;;21.80;69.90;;;;;;6106231;28;93428;-66
2022/04/01 11:00:05;;;;;;;2.67;2.10;;;21.80;69.80;;;;;;6104549;28;94963;-67
2022/04/01 11:03:24;;;;;;;2.75;2.03;;;21.80;69.80;;;;;;6101570;28;93912;-67
2022/04/01 11:06:27;;;;;;;3.83;2.45;;;21.90;69.70;;;;;;6100891;28;94129;-66
2022/04/01 11:09:45;;;;;;;3.28;2.42;;;21.90;69.60;;;;;;6106593;28;94117;-67
2022/04/01 11:12:53;;;;;;;2.40;2.20;;;21.90;69.40;;;;;;6105721;28;94271;-66
2022/04/01 11:16:15;;;;;;;3.45;2.10;;;22.00;69.40;;;;;;6092900;28;94390;-67
2022/04/01 11:19:19;;;;;;;2.78;2.20;;;22.00;69.30;;;;;;6105028;28;94200;-67
2022/04/01 11:22:40;;;;;;;3.03;2.50;;;22.00;69.30;;;;;;6106420;28;93383;-67
2022/04/01 11:25:57;;;;;;;3.25;2.20;;;22.10;69.30;;;;;;6091863;28;92950;-67
2022/04/01 11:29:02;;;;;;;2.67;2.40;;;22.10;69.30;;;;;;6104841;28;94424;-66
2022/04/01 11:32:08;;;;;;;2.30;2.05;;;22.10;69.20;;;;;;6104910;28;95056;-67
2022/04/01 11:35:11;;;;;;;3.30;2.20;;;22.10;69.10;;;;;;6104646;28;93038;-67
2022/04/01 11:38:15;;;;;;;3.95;2.17;;;22.10;69.10;;;;;;6096866;28;94147;-67
2022/04/01 11:41:18;;;;;;;2.53;2.30;;;22.10;69.10;;;;;;6102572;28;94441;-67
2022/04/01 11:44:23;;;;;;;2.50;2.30;;;22.10;69.10;;;;;;6098043;28;94374;-66
2022/04/01 11:47:32;;;;;;;2.40;2.15;;;22.10;69.00;;;;;;6101668;28;93096;-66
2022/04/01 11:50:34;;;;;;;2.65;2.40;;;22.10;69.00;;;;;;6099593;28;94843;-67
2022/04/01 11:53:37;;;;;;;2.88;2.40;;;22.10;69.00;;;;;;6098136;28;93360;-67
2022/04/01 11:56:39;;;;;;;3.15;2.47;;;22.20;69.00;;;;;;6089597;28;94650;-67
2022/04/01 11:59:43;;;;;;;3.33;2.47;;;22.20;69.10;;;;;;6108201;28;94853;-66
2022/04/01 12:02:46;;;;;;;2.78;2.05;;;22.10;68.90;;;;;;6097325;28;95070;-67
2022/04/01 12:08:41;;;;;;;2.13;1.92;;;22.20;68.90;;;;;;6109208;28;94095;-67
2022/04/01 12:09:15;;;;;;;3.40;2.10;;;22.20;68.90;;;;;;6099355;28;93873;-66
2022/04/01 12:12:23;;;;;;;2.45;2.25;;;22.20;68.90;;;;;;6108721;28;94031;-67
2022/04/01 12:15:38;;;;;;;3.78;2.35;;;22.20;68.80;;;;;;6107000;28;94302;-66
2022/04/01 12:18:44;;;;;;;3.33;2.22;;;22.20;68.90;;;;;;6098240;28;94167;-66
2022/04/01 12:21:48;;;;;;;3.35;2.17;;;22.20;68.80;;;;;;6110048;28;94079;-67
2022/04/01 12:24:51;;;;;;;2.22;2.03;;;22.30;68.90;;;;;;6108565;28;93582;-68
2022/04/01 12:27:54;;;;;;;3.70;2.00;;;22.30;68.90;;;;;;6095619;28;94025;-67
2022/04/01 12:30:57;;;;;;;3.00;2.30;;;22.30;68.80;;;;;;6098071;28;94142;-67
2022/04/01 12:34:00;;;;;;;3.00;2.20;;;22.30;68.80;;;;;;6102526;28;95015;-67
2022/04/01 12:37:04;;;;;;;2.95;2.50;;;22.30;68.80;;;;;;6107569;28;94120;-67
2022/04/01 12:40:10;;;;;;;2.75;2.25;;;22.40;68.80;;;;;;6109198;28;93991;-67
2022/04/01 12:43:45;;;;;;;3.47;2.30;;;22.40;68.80;;;;;;6099855;28;94241;-67
2022/04/01 12:46:51;;;;;;;3.67;2.03;;;22.30;68.60;;;;;;6107842;28;93366;-67
2022/04/01 12:49:53;;;;;;;4.32;2.17;;;22.40;68.80;;;;;;6101111;28;94162;-67
2022/04/01 12:53:09;;;;;;;3.10;2.40;;;22.40;68.70;;;;;;6108599;28;94279;-67
2022/04/01 12:56:18;;;;;;;2.70;2.13;;;22.40;68.70;;;;;;6092725;28;93397;-67
2022/04/01 12:59:21;;;;;;;2.78;2.10;;;22.40;68.60;;;;;;6107064;28;94083;-67
2022/04/01 13:02:25;;;;;;;3.83;2.10;;;22.40;68.60;;;;;;6107666;28;94423;-67
2022/04/01 13:05:27;;;;;;;2.60;2.15;;;22.40;68.60;;;;;;6101463;28;95293;-67
2022/04/01 13:08:32;;;;;;;2.83;2.10;;;22.40;68.60;;;;;;6108217;28;94088;-67
2022/04/01 13:11:39;;;;;;;2.78;2.13;;;22.40;68.60;;;;;;6108277;28;94192;-67
2022/04/01 13:14:41;;;;;;;2.63;2.10;;;22.40;68.60;;;;;;6084942;28;94087;-67
2022/04/01 13:17:46;;;;;;;2.45;1.98;;;22.40;68.60;;;;;;6106363;28;94473;-67
2022/04/01 13:20:48;;;;;;;2.63;2.10;;;22.40;68.50;;;;;;6099730;28;94053;-66
2022/04/01 13:23:50;;;;;;;3.25;2.10;;;22.40;68.50;;;;;;6095196;28;94087;-67
2022/04/01 13:26:53;;;;;;;2.55;2.10;;;22.40;68.40;;;;;;6090595;28;93008;-67
2022/04/01 13:29:55;;;;;;;2.80;2.13;;;22.40;68.40;;;;;;6101246;28;93550;-67
2022/04/01 13:32:59;;;;;;;2.20;1.83;;;22.40;68.40;;;;;;6106405;28;94037;-68
2022/04/01 13:36:01;;;;;;;2.70;2.05;;;22.40;68.40;;;;;;6107490;28;95116;-67
2022/04/01 13:39:04;;;;;;;2.90;2.28;;;22.40;68.40;;;;;;6101824;28;94107;-67
2022/04/01 13:42:07;;;;;;;2.58;2.10;;;22.50;68.40;;;;;;6107650;28;94158;-67
2022/04/01 13:45:10;;;;;;;3.03;2.30;;;22.40;68.30;;;;;;6105417;28;94120;-67
2022/04/01 13:48:13;;;;;;;2.22;2.03;;;22.50;68.30;;;;;;6083189;28;94421;-67
2022/04/01 13:51:16;;;;;;;2.78;2.00;;;22.50;68.20;;;;;;6096588;28;94383;-67
2022/04/01 13:54:18;;;;;;;2.65;1.95;;;22.50;68.20;;;;;;6097014;28;94124;-67
2022/04/01 13:57:39;;;;;;;3.35;2.17;;;22.50;68.30;;;;;;6091971;28;93312;-67
2022/04/01 14:00:41;;;;;;;2.47;2.00;;;22.50;68.20;;;;;;6107219;28;94387;-67
2022/04/01 14:03:45;;;;;;;2.70;2.03;;;22.50;68.20;;;;;;6106440;28;94352;-67
2022/04/01 14:06:47;;;;;;;2.15;1.88;;;22.50;68.30;;;;;;6094687;28;95012;-67
2022/04/01 14:09:49;;;;;;;2.30;1.80;;;22.50;68.20;;;;;;6099419;28;94139;-67
2022/04/01 14:12:51;;;;;;;2.20;1.98;;;22.50;68.30;;;;;;6099005;28;94088;-67
2022/04/01 14:15:53;;;;;;;2.30;1.85;;;22.50;68.30;;;;;;6083565;28;94526;-67
2022/04/01 14:18:56;;;;;;;2.30;2.08;;;22.50;68.30;;;;;;6106439;28;94183;-67
2022/04/01 14:21:58;;;;;;;2.92;2.10;;;22.50;68.30;;;;;;6095226;28;94345;-67
2022/04/01 14:25:01;;;;;;;2.25;1.90;;;22.50;68.30;;;;;;6086057;28;94360;-68
2022/04/01 14:28:03;;;;;;;2.22;1.88;;;22.50;68.30;;;;;;6096313;28;93389;-67
2022/04/01 14:31:06;;;;;;;2.65;1.65;;;22.50;68.30;;;;;;6093691;28;94062;-66
2022/04/01 14:34:09;;;;;;;2.17;1.98;;;22.50;68.30;;;;;;6106367;28;94081;-66
2022/04/01 14:37:12;;;;;;;3.00;2.05;;;22.50;68.20;;;;;;6097104;28;95151;-66
2022/04/01 14:40:14;;;;;;;3.22;1.90;;;22.60;68.40;;;;;;6092735;28;94430;-66
2022/04/01 14:43:17;;;;;;;3.47;1.77;;;22.60;68.40;;;;;;6083456;28;94135;-66
2022/04/01 14:46:19;;;;;;;3.05;1.90;;;22.60;68.40;;;;;;6097346;28;94090;-66
2022/04/01 14:49:22;;;;;;;1.88;1.70;;;22.60;68.40;;;;;;6108141;28;94162;-66
2022/04/01 14:52:24;;;;;;;2.20;1.95;;;22.60;68.40;;;;;;6104007;28;94398;-66
2022/04/01 14:55:26;;;;;;;2.78;1.95;;;22.60;68.50;;;;;;6103350;28;94461;-66
2022/04/01 14:58:28;;;;;;;2.83;2.20;;;22.60;68.40;;;;;;6093514;28;93679;-66
2022/04/01 15:01:30;;;;;;;2.45;1.88;;;22.60;68.40;;;;;;6107325;28;93332;-66
2022/04/01 15:04:34;;;;;;;2.58;1.90;;;22.60;69.40;;;;;;6094846;28;94755;-66
2022/04/01 15:07:36;;;;;;;2.78;2.20;;;22.60;68.40;;;;;;6103230;28;95111;-66
2022/04/01 15:10:38;;;;;;;3.03;2.05;;;22.60;68.40;;;;;;6083506;28;94154;-66
2022/04/01 15:13:40;;;;;;;3.50;2.47;;;22.60;68.40;;;;;;6105986;28;94114;-66
2022/04/01 15:16:42;;;;;;;2.72;2.10;;;22.60;68.30;;;;;;6107281;28;94962;-66
2022/04/01 15:19:46;;;;;;;3.10;2.13;;;22.60;68.30;;;;;;6105402;28;94498;-66
2022/04/01 15:22:48;;;;;;;3.58;2.47;;;22.60;68.30;;;;;;6106311;28;94138;-65
2022/04/01 15:25:51;;;;;;;2.80;2.25;;;22.60;68.30;;;;;;6106034;28;94467;-65
2022/04/01 15:28:53;;;;;;;3.22;2.20;;;22.70;68.30;;;;;;6099359;28;93537;-65
2022/04/01 15:32:14;;;;;;;2.97;2.10;;;22.60;68.30;;;;;;6100368;28;94237;-66
2022/04/01 15:35:17;;;;;;;2.83;2.17;;;22.60;68.20;;;;;;6098190;28;94138;-66
2022/04/01 15:38:26;;;;;;;3.20;2.38;;;22.70;68.30;;;;;;6091969;28;95081;-66
2022/04/01 15:41:30;;;;;;;3.15;2.40;;;22.70;68.20;;;;;;6089634;28;94306;-65
2022/04/01 15:44:33;;;;;;;2.90;2.20;;;22.70;68.90;;;;;;6091351;28;94131;-65
2022/04/01 15:47:36;;;;;;;3.63;2.40;;;22.60;68.70;;;;;;6085578;28;94058;-66
2022/04/01 15:50:40;;;;;;;2.58;2.28;;;22.60;68.70;;;;;;6103196;28;94118;-66
2022/04/01 15:53:43;;;;;;;3.33;2.55;;;22.70;68.80;;;;;;6107221;28;94008;-65
2022/04/01 15:56:45;;;;;;;4.50;2.30;;;22.70;68.80;;;;;;6098449;28;93696;-66
2022/04/01 15:59:47;;;;;;;3.20;2.30;;;22.70;68.80;;;;;;6105954;28;93402;-66
2022/04/01 16:02:57;;;;;;;3.67;2.45;;;22.70;68.80;;;;;;6092268;28;94059;-66
2022/04/01 16:06:02;;;;;;;3.33;2.60;;;22.70;68.90;;;;;;6106275;28;94179;-66
2022/04/01 16:09:06;;;;;;;3.85;2.45;;;22.70;68.90;;;;;;6103262;28;95423;-66
2022/04/01 16:12:12;;;;;;;3.45;2.13;;;22.70;68.90;;;;;;6086326;28;94056;-66